Time;durP1;ratioP1;P1;durP2;ratioP2;P2;SDS_P1;SDS_P2;PMS_P1;PMS_P2;Temp;Humidity;BMP_temperature;BMP_pressure;BME280_temperature;BME280_humidity;BME280_pressure;Samples;Min_cycle;Max_cycle;Signal;HPM_P1;HPM_P2
2021/07/11 00:02:33;;;;;;;2.18;1.97;;;;;;;21.15;71.00;100385.45;;;;-60
2021/07/11 00:05:30;;;;;;;1.95;1.85;;;;;;;21.14;71.01;100385.50;;;;-59
2021/07/11 00:08:30;;;;;;;1.89;1.79;;;;;;;21.15;70.99;100384.38;;;;-59
2021/07/11 00:11:29;;;;;;;2.05;1.89;;;;;;;21.14;71.13;100385.59;;;;-60
2021/07/11 00:14:30;;;;;;;1.95;1.83;;;;;;;21.14;71.04;100384.12;;;;-53
2021/07/11 00:17:29;;;;;;;2.05;1.80;;;;;;;21.14;71.02;100382.33;;;;-53
2021/07/11 00:20:30;;;;;;;1.85;1.75;;;;;;;21.13;70.95;100384.05;;;;-53
2021/07/11 00:23:30;;;;;;;1.88;1.75;;;;;;;21.14;71.03;100381.11;;;;-53
2021/07/11 00:26:29;;;;;;;2.49;1.90;;;;;;;21.13;70.99;100379.66;;;;-53
2021/07/11 00:29:30;;;;;;;2.01;1.91;;;;;;;21.13;71.01;100379.25;;;;-53
2021/07/11 00:32:30;;;;;;;1.89;1.79;;;;;;;21.13;70.98;100386.99;;;;-53
2021/07/11 00:35:30;;;;;;;1.89;1.79;;;;;;;21.12;70.95;100387.38;;;;-53
2021/07/11 00:38:30;;;;;;;2.18;1.90;;;;;;;21.13;71.05;100389.11;;;;-53
2021/07/11 00:41:29;;;;;;;2.01;1.87;;;;;;;21.13;71.03;100386.58;;;;-53
2021/07/11 00:44:30;;;;;;;1.86;1.76;;;;;;;21.12;71.00;100380.13;;;;-55
2021/07/11 00:47:30;;;;;;;1.97;1.87;;;;;;;21.12;71.01;100380.70;;;;-55
2021/07/11 00:50:30;;;;;;;1.92;1.71;;;;;;;21.12;71.04;100384.78;;;;-55
2021/07/11 00:53:30;;;;;;;2.04;1.81;;;;;;;21.11;71.03;100382.92;;;;-55
2021/07/11 00:56:29;;;;;;;1.68;1.58;;;;;;;21.11;71.05;100383.08;;;;-55
2021/07/11 00:59:30;;;;;;;2.26;1.87;;;;;;;21.11;71.03;100387.31;;;;-55
2021/07/11 01:02:30;;;;;;;1.87;1.77;;;;;;;21.11;71.02;100382.76;;;;-55
2021/07/11 01:05:30;;;;;;;2.01;1.80;;;;;;;21.11;70.95;100379.83;;;;-55
2021/07/11 01:08:30;;;;;;;1.85;1.75;;;;;;;21.11;71.01;100386.42;;;;-55
2021/07/11 01:11:29;;;;;;;1.90;1.80;;;;;;;21.10;70.91;100388.03;;;;-55
2021/07/11 01:14:30;;;;;;;1.94;1.84;;;;;;;21.10;71.00;100393.91;;;;-55
2021/07/11 01:17:30;;;;;;;2.17;1.97;;;;;;;21.11;71.02;100397.02;;;;-55
2021/07/11 01:20:29;;;;;;;1.81;1.71;;;;;;;21.10;70.97;100391.78;;;;-55
2021/07/11 01:23:30;;;;;;;2.02;1.91;;;;;;;21.10;71.00;100394.06;;;;-57
2021/07/11 01:26:29;;;;;;;1.93;1.83;;;;;;;21.09;70.96;100396.03;;;;-55
2021/07/11 01:29:30;;;;;;;1.96;1.86;;;;;;;21.09;71.00;100397.67;;;;-55
2021/07/11 01:32:30;;;;;;;2.18;1.98;;;;;;;21.10;71.00;100401.08;;;;-54
2021/07/11 01:35:30;;;;;;;1.78;1.68;;;;;;;21.09;70.98;100395.95;;;;-59
2021/07/11 01:38:30;;;;;;;2.29;1.95;;;;;;;21.09;70.99;100395.71;;;;-58
2021/07/11 01:41:29;;;;;;;1.72;1.62;;;;;;;21.09;71.04;100397.27;;;;-59
2021/07/11 01:44:30;;;;;;;1.80;1.70;;;;;;;21.08;71.03;100396.34;;;;-59
2021/07/11 01:47:30;;;;;;;1.79;1.69;;;;;;;21.08;70.98;100396.70;;;;-59
2021/07/11 01:50:29;;;;;;;1.86;1.75;;;;;;;21.09;70.90;100401.58;;;;-60
2021/07/11 01:53:30;;;;;;;1.93;1.83;;;;;;;21.08;71.07;100405.40;;;;-60
2021/07/11 01:56:29;;;;;;;1.85;1.75;;;;;;;21.08;70.96;100405.50;;;;-59
2021/07/11 01:59:30;;;;;;;1.73;1.63;;;;;;;21.08;70.97;100406.54;;;;-59
2021/07/11 02:02:29;;;;;;;1.99;1.80;;;;;;;21.08;70.94;100403.28;;;;-62
2021/07/11 02:05:29;;;;;;;1.80;1.70;;;;;;;21.08;70.94;100406.05;;;;-62
2021/07/11 02:08:30;;;;;;;1.80;1.70;;;;;;;21.08;70.99;100402.14;;;;-63
2021/07/11 02:11:29;;;;;;;1.73;1.63;;;;;;;21.07;70.97;100403.61;;;;-62
2021/07/11 02:14:30;;;;;;;1.71;1.61;;;;;;;21.07;70.93;100409.31;;;;-62
2021/07/11 02:17:30;;;;;;;1.73;1.63;;;;;;;21.07;70.98;100409.23;;;;-62
2021/07/11 02:20:30;;;;;;;2.41;1.81;;;;;;;21.06;71.01;100406.31;;;;-62
2021/07/11 02:23:30;;;;;;;1.80;1.70;;;;;;;21.07;70.91;100409.56;;;;-62
2021/07/11 02:26:29;;;;;;;1.80;1.70;;;;;;;21.07;70.98;100413.73;;;;-62
2021/07/11 02:29:35;;;;;;;1.81;1.70;;;;;;;21.07;70.96;100412.75;;;;-62
2021/07/11 02:32:31;;;;;;;1.75;1.65;;;;;;;21.07;70.99;100414.70;;;;-62
2021/07/11 02:35:29;;;;;;;1.89;1.79;;;;;;;21.07;70.93;100411.13;;;;-63
2021/07/11 02:38:30;;;;;;;1.91;1.81;;;;;;;21.06;70.94;100406.64;;;;-62
2021/07/11 02:41:29;;;;;;;1.80;1.69;;;;;;;21.06;70.94;100404.98;;;;-60
2021/07/11 02:44:30;;;;;;;1.86;1.76;;;;;;;21.06;70.93;100408.41;;;;-59
2021/07/11 02:47:30;;;;;;;1.81;1.71;;;;;;;21.06;70.95;100411.05;;;;-59
2021/07/11 02:50:30;;;;;;;1.81;1.71;;;;;;;21.06;70.94;100410.28;;;;-58
2021/07/11 02:53:31;;;;;;;1.80;1.70;;;;;;;21.05;71.01;100408.50;;;;-60
2021/07/11 02:56:29;;;;;;;1.90;1.77;;;;;;;21.05;70.89;100406.63;;;;-59
2021/07/11 02:59:29;;;;;;;1.70;1.60;;;;;;;21.05;70.89;100403.13;;;;-59
2021/07/11 03:02:30;;;;;;;1.72;1.61;;;;;;;21.05;70.95;100401.42;;;;-59
2021/07/11 03:05:29;;;;;;;1.81;1.71;;;;;;;21.05;70.94;100405.65;;;;-59
2021/07/11 03:08:30;;;;;;;1.80;1.70;;;;;;;21.05;70.94;100404.84;;;;-59
2021/07/11 03:11:29;;;;;;;1.73;1.63;;;;;;;21.05;70.96;100411.36;;;;-59
2021/07/11 03:14:29;;;;;;;1.74;1.64;;;;;;;21.05;70.95;100411.60;;;;-60
2021/07/11 03:17:30;;;;;;;1.80;1.70;;;;;;;21.04;70.96;100403.22;;;;-59
2021/07/11 03:20:29;;;;;;;1.89;1.79;;;;;;;21.05;70.94;100405.50;;;;-60
2021/07/11 03:23:30;;;;;;;1.81;1.71;;;;;;;21.04;70.97;100405.99;;;;-59
2021/07/11 03:26:32;;;;;;;1.73;1.63;;;;;;;21.04;70.94;100406.48;;;;-60
2021/07/11 03:29:32;;;;;;;1.73;1.63;;;;;;;21.04;70.87;100411.19;;;;-59
2021/07/11 03:32:30;;;;;;;1.84;1.73;;;;;;;21.04;70.98;100412.34;;;;-58
2021/07/11 03:35:29;;;;;;;1.81;1.71;;;;;;;21.04;70.94;100407.69;;;;-59
2021/07/11 03:38:30;;;;;;;1.75;1.65;;;;;;;21.04;70.91;100404.10;;;;-59
2021/07/11 03:41:29;;;;;;;1.89;1.79;;;;;;;21.03;70.86;100403.87;;;;-59
2021/07/11 03:44:29;;;;;;;1.71;1.61;;;;;;;21.03;70.94;100408.59;;;;-59
2021/07/11 03:47:30;;;;;;;1.76;1.66;;;;;;;21.03;70.97;100405.17;;;;-59
2021/07/11 03:50:29;;;;;;;1.81;1.71;;;;;;;21.03;70.84;100408.84;;;;-59
2021/07/11 03:53:30;;;;;;;1.60;1.50;;;;;;;21.02;70.99;100405.16;;;;-58
2021/07/11 03:56:30;;;;;;;1.50;1.40;;;;;;;21.02;70.98;100404.91;;;;-59
2021/07/11 03:59:29;;;;;;;2.01;1.70;;;;;;;21.02;70.92;100409.80;;;;-59
2021/07/11 04:02:32;;;;;;;1.78;1.68;;;;;;;21.02;70.92;100409.72;;;;-59
2021/07/11 04:05:29;;;;;;;1.77;1.65;;;;;;;21.03;70.91;100410.31;;;;-59
2021/07/11 04:08:30;;;;;;;1.69;1.59;;;;;;;21.03;71.10;100414.70;;;;-59
2021/07/11 04:11:29;;;;;;;2.52;1.72;;;;;;;21.02;71.07;100418.38;;;;-60
2021/07/11 04:14:29;;;;;;;1.79;1.69;;;;;;;21.03;70.92;100425.14;;;;-59
2021/07/11 04:17:30;;;;;;;1.67;1.57;;;;;;;21.03;70.89;100431.49;;;;-59
2021/07/11 04:20:29;;;;;;;1.70;1.60;;;;;;;21.03;70.89;100433.60;;;;-60
2021/07/11 04:23:30;;;;;;;1.83;1.71;;;;;;;21.03;71.01;100441.19;;;;-53
2021/07/11 04:26:29;;;;;;;1.80;1.70;;;;;;;21.03;71.04;100444.86;;;;-53
2021/07/11 04:29:30;;;;;;;3.81;1.77;;;;;;;21.02;71.01;100443.53;;;;-54
2021/07/11 04:32:30;;;;;;;1.89;1.73;;;;;;;21.02;71.13;100442.56;;;;-53
2021/07/11 04:35:30;;;;;;;1.78;1.68;;;;;;;21.01;71.06;100442.73;;;;-53
2021/07/11 04:38:30;;;;;;;1.91;1.80;;;;;;;21.01;71.08;100441.67;;;;-53
2021/07/11 04:41:29;;;;;;;1.78;1.68;;;;;;;21.01;71.14;100441.11;;;;-53
2021/07/11 04:44:29;;;;;;;1.96;1.56;;;;;;;21.01;71.13;100441.51;;;;-53
2021/07/11 04:47:30;;;;;;;1.84;1.74;;;;;;;21.01;71.06;100439.97;;;;-53
2021/07/11 04:50:29;;;;;;;1.93;1.79;;;;;;;21.01;71.44;100443.63;;;;-55
2021/07/11 04:53:30;;;;;;;2.58;1.72;;;;;;;21.01;71.27;100443.38;;;;-57
2021/07/11 04:56:29;;;;;;;3.27;1.89;;;;;;;21.04;71.94;100441.66;;;;-58
2021/07/11 04:59:29;;;;;;;2.61;1.87;;;;;;;21.03;71.51;100451.12;;;;-58
2021/07/11 05:02:30;;;;;;;2.37;1.89;;;;;;;21.03;71.63;100455.03;;;;-58
2021/07/11 05:05:29;;;;;;;2.10;1.90;;;;;;;21.04;71.59;100456.57;;;;-58
2021/07/11 05:08:30;;;;;;;1.95;1.85;;;;;;;21.03;71.64;100457.48;;;;-58
2021/07/11 05:11:29;;;;;;;3.53;1.81;;;;;;;21.03;71.69;100461.23;;;;-58
2021/07/11 05:14:29;;;;;;;3.10;1.81;;;;;;;21.03;71.68;100464.16;;;;-59
2021/07/11 05:17:30;;;;;;;2.09;1.73;;;;;;;21.03;71.52;100466.86;;;;-59
2021/07/11 05:20:29;;;;;;;3.09;1.91;;;;;;;21.03;71.42;100469.38;;;;-57
2021/07/11 05:23:30;;;;;;;2.37;1.81;;;;;;;21.02;71.49;100468.95;;;;-59
2021/07/11 05:26:30;;;;;;;1.95;1.81;;;;;;;21.03;71.48;100470.27;;;;-58
2021/07/11 05:29:29;;;;;;;2.79;1.90;;;;;;;21.02;71.41;100477.02;;;;-59
2021/07/11 05:32:30;;;;;;;1.91;1.81;;;;;;;21.02;71.35;100476.94;;;;-59
2021/07/11 05:35:29;;;;;;;1.97;1.87;;;;;;;21.02;71.46;100478.08;;;;-57
2021/07/11 05:38:30;;;;;;;2.11;1.83;;;;;;;21.02;71.36;100474.66;;;;-59
2021/07/11 05:41:29;;;;;;;2.78;1.90;;;;;;;21.02;71.40;100471.73;;;;-59
2021/07/11 05:44:29;;;;;;;2.42;1.76;;;;;;;21.01;71.33;100469.12;;;;-59
2021/07/11 05:47:30;;;;;;;1.94;1.81;;;;;;;21.01;71.33;100473.38;;;;-59
2021/07/11 05:50:29;;;;;;;2.25;1.77;;;;;;;21.01;71.34;100479.56;;;;-58
2021/07/11 05:53:30;;;;;;;2.01;1.79;;;;;;;21.00;71.35;100482.42;;;;-58
2021/07/11 05:56:29;;;;;;;2.12;1.81;;;;;;;21.00;71.22;100483.64;;;;-59
2021/07/11 05:59:29;;;;;;;2.23;1.72;;;;;;;21.00;71.30;100489.34;;;;-57
2021/07/11 06:02:30;;;;;;;2.41;1.90;;;;;;;21.00;71.22;100489.75;;;;-58
2021/07/11 06:05:29;;;;;;;2.19;1.79;;;;;;;21.00;71.17;100489.02;;;;-58
2021/07/11 06:08:30;;;;;;;1.94;1.77;;;;;;;21.00;71.14;100493.42;;;;-59
2021/07/11 06:11:29;;;;;;;2.25;1.87;;;;;;;21.00;71.13;100487.13;;;;-59
2021/07/11 06:14:29;;;;;;;1.81;1.71;;;;;;;21.00;71.23;100492.33;;;;-57
2021/07/11 06:17:32;;;;;;;1.91;1.75;;;;;;;20.99;71.15;100490.55;;;;-58
2021/07/11 06:20:29;;;;;;;1.84;1.72;;;;;;;20.99;71.14;100488.27;;;;-59
2021/07/11 06:23:29;;;;;;;2.39;1.80;;;;;;;20.99;71.18;100487.62;;;;-59
2021/07/11 06:26:29;;;;;;;1.91;1.79;;;;;;;20.99;71.15;100489.08;;;;-53
2021/07/11 06:29:29;;;;;;;1.87;1.70;;;;;;;20.99;71.09;100484.45;;;;-53
2021/07/11 06:32:30;;;;;;;1.72;1.62;;;;;;;20.99;71.21;100489.25;;;;-53
2021/07/11 06:35:30;;;;;;;1.89;1.71;;;;;;;20.99;71.15;100488.11;;;;-53
2021/07/11 06:38:29;;;;;;;1.77;1.67;;;;;;;20.98;71.05;100486.16;;;;-53
2021/07/11 06:41:29;;;;;;;1.85;1.73;;;;;;;20.98;71.08;100489.34;;;;-53
2021/07/11 06:44:29;;;;;;;1.75;1.65;;;;;;;20.98;71.15;100490.48;;;;-52
2021/07/11 06:47:30;;;;;;;1.81;1.71;;;;;;;20.98;71.09;100486.33;;;;-53
2021/07/11 06:50:29;;;;;;;1.79;1.69;;;;;;;20.97;71.07;100488.27;;;;-53
2021/07/11 06:53:29;;;;;;;1.79;1.69;;;;;;;20.97;71.08;100487.78;;;;-53
2021/07/11 06:56:30;;;;;;;1.77;1.67;;;;;;;20.97;71.05;100486.48;;;;-53
2021/07/11 06:59:29;;;;;;;1.85;1.75;;;;;;;20.98;71.02;100487.55;;;;-53
2021/07/11 07:02:29;;;;;;;1.67;1.57;;;;;;;20.97;71.04;100486.16;;;;-53
2021/07/11 07:05:29;;;;;;;2.02;1.75;;;;;;;20.97;71.04;100496.09;;;;-52
2021/07/11 07:08:29;;;;;;;1.80;1.70;;;;;;;20.97;71.03;100491.20;;;;-53
2021/07/11 07:11:30;;;;;;;2.20;1.72;;;;;;;20.97;70.98;100490.88;;;;-53
2021/07/11 07:14:29;;;;;;;1.88;1.75;;;;;;;20.97;71.05;100496.50;;;;-53
2021/07/11 07:17:29;;;;;;;1.73;1.63;;;;;;;20.97;71.08;100504.32;;;;-52
2021/07/11 07:20:29;;;;;;;1.83;1.70;;;;;;;20.96;71.03;100509.70;;;;-52
2021/07/11 07:23:29;;;;;;;1.83;1.70;;;;;;;20.96;71.01;100511.58;;;;-51
2021/07/11 07:26:30;;;;;;;1.70;1.60;;;;;;;20.96;70.98;100511.50;;;;-51
2021/07/11 07:29:29;;;;;;;2.36;1.66;;;;;;;20.95;71.06;100511.31;;;;-53
2021/07/11 07:32:29;;;;;;;1.62;1.52;;;;;;;20.97;70.96;100513.37;;;;-53
2021/07/11 07:35:29;;;;;;;2.06;1.74;;;;;;;20.95;71.02;100511.89;;;;-53
2021/07/11 07:38:29;;;;;;;1.99;1.67;;;;;;;20.95;71.04;100511.48;;;;-52
2021/07/11 07:41:29;;;;;;;2.43;1.73;;;;;;;20.95;70.94;100514.41;;;;-64
2021/07/11 07:44:30;;;;;;;1.60;1.50;;;;;;;20.96;70.95;100518.56;;;;-63
2021/07/11 07:47:29;;;;;;;1.73;1.61;;;;;;;20.95;71.03;100517.84;;;;-63
2021/07/11 07:50:29;;;;;;;1.91;1.64;;;;;;;20.94;71.00;100520.45;;;;-51
2021/07/11 07:53:29;;;;;;;1.62;1.50;;;;;;;20.95;70.98;100525.17;;;;-52
2021/07/11 07:56:29;;;;;;;1.73;1.63;;;;;;;20.94;70.93;100521.17;;;;-59
2021/07/11 07:59:29;;;;;;;2.14;1.61;;;;;;;20.94;70.96;100526.73;;;;-58
2021/07/11 08:02:31;;;;;;;1.80;1.70;;;;;;;20.94;70.89;100523.64;;;;-58
2021/07/11 08:05:29;;;;;;;1.92;1.69;;;;;;;20.94;70.93;100529.10;;;;-58
2021/07/11 08:08:29;;;;;;;1.70;1.60;;;;;;;20.94;70.91;100528.20;;;;-58
2021/07/11 08:11:30;;;;;;;1.77;1.67;;;;;;;20.94;70.94;100529.97;;;;-59
2021/07/11 08:14:29;;;;;;;1.78;1.68;;;;;;;20.94;70.94;100528.66;;;;-58
2021/07/11 08:17:29;;;;;;;1.80;1.70;;;;;;;20.93;71.00;100531.03;;;;-59
2021/07/11 08:20:29;;;;;;;1.86;1.65;;;;;;;20.93;70.97;100534.78;;;;-63
2021/07/11 08:23:29;;;;;;;1.60;1.50;;;;;;;20.94;70.91;100539.58;;;;-63
2021/07/11 08:26:31;;;;;;;1.75;1.57;;;;;;;20.93;70.85;100533.07;;;;-52
2021/07/11 08:29:29;;;;;;;1.72;1.62;;;;;;;20.93;70.87;100531.45;;;;-51
2021/07/11 08:32:29;;;;;;;1.73;1.63;;;;;;;20.93;70.93;100532.02;;;;-52
2021/07/11 08:35:29;;;;;;;1.80;1.70;;;;;;;20.94;70.96;100532.03;;;;-51
2021/07/11 08:38:30;;;;;;;2.04;1.65;;;;;;;20.93;70.87;100532.01;;;;-52
2021/07/11 08:41:29;;;;;;;1.74;1.64;;;;;;;20.93;70.98;100528.76;;;;-51
2021/07/11 08:44:29;;;;;;;1.70;1.60;;;;;;;20.93;70.92;100534.29;;;;-52
2021/07/11 08:47:29;;;;;;;1.80;1.60;;;;;;;20.93;70.91;100533.07;;;;-52
2021/07/11 08:50:29;;;;;;;1.73;1.57;;;;;;;20.93;70.83;100535.03;;;;-58
2021/07/11 08:53:29;;;;;;;1.70;1.60;;;;;;;20.93;70.91;100540.97;;;;-58
2021/07/11 08:56:29;;;;;;;2.64;1.60;;;;;;;20.93;70.90;100539.51;;;;-51
2021/07/11 08:59:29;;;;;;;1.69;1.59;;;;;;;20.93;70.84;100543.50;;;;-52
2021/07/11 09:02:29;;;;;;;1.85;1.75;;;;;;;20.94;70.81;100545.61;;;;-51
2021/07/11 09:05:29;;;;;;;2.05;1.68;;;;;;;20.93;70.91;100547.32;;;;-51
2021/07/11 09:08:29;;;;;;;1.59;1.49;;;;;;;20.93;70.81;100547.32;;;;-51
2021/07/11 09:11:29;;;;;;;1.75;1.61;;;;;;;20.93;71.08;100546.02;;;;-50
2021/07/11 09:14:29;;;;;;;15.59;3.12;;;;;;;20.97;71.53;100557.44;;;;-53
2021/07/11 09:17:29;;;;;;;7.80;3.37;;;;;;;20.98;71.47;100555.98;;;;-58
2021/07/11 09:20:29;;;;;;;6.55;3.49;;;;;;;20.95;71.63;100555.47;;;;-65
2021/07/11 09:23:29;;;;;;;10.70;3.65;;;;;;;20.95;71.67;100551.65;;;;-59
2021/07/11 09:26:29;;;;;;;5.36;3.30;;;;;;;20.97;71.86;100555.08;;;;-61
2021/07/11 09:29:29;;;;;;;4.81;3.27;;;;;;;20.98;71.71;100557.12;;;;-61
2021/07/11 09:32:30;;;;;;;8.46;3.53;;;;;;;21.03;71.64;100558.18;;;;-52
2021/07/11 09:35:29;;;;;;;15.32;3.69;;;;;;;21.06;72.06;100552.50;;;;-50
2021/07/11 09:38:29;;;;;;;13.61;3.49;;;;;;;21.09;72.00;100559.09;;;;-53
2021/07/11 09:41:29;;;;;;;10.90;3.53;;;;;;;21.11;71.92;100554.20;;;;-52
2021/07/11 09:44:29;;;;;;;7.68;3.31;;;;;;;21.12;71.82;100554.44;;;;-55
2021/07/11 09:47:29;;;;;;;7.81;3.24;;;;;;;21.14;71.80;100551.34;;;;-57
2021/07/11 09:50:29;;;;;;;5.19;3.31;;;;;;;21.15;71.78;100549.66;;;;-58
2021/07/11 09:53:29;;;;;;;5.88;3.23;;;;;;;21.16;71.82;100546.37;;;;-55
2021/07/11 09:56:30;;;;;;;8.32;3.11;;;;;;;21.18;71.70;100543.37;;;;-57
2021/07/11 09:59:29;;;;;;;10.62;3.43;;;;;;;21.19;71.64;100541.42;;;;-47
2021/07/11 10:02:29;;;;;;;7.23;3.26;;;;;;;21.19;71.61;100541.83;;;;-52
2021/07/11 10:05:30;;;;;;;6.98;2.99;;;;;;;21.21;71.61;100536.54;;;;-54
2021/07/11 10:08:29;;;;;;;5.81;3.15;;;;;;;21.22;71.57;100539.78;;;;-57
2021/07/11 10:11:30;;;;;;;5.28;2.97;;;;;;;21.23;71.52;100541.16;;;;-53
2021/07/11 10:14:29;;;;;;;6.05;3.34;;;;;;;21.24;71.58;100543.95;;;;-54
2021/07/11 10:17:29;;;;;;;6.55;3.18;;;;;;;21.25;71.55;100542.95;;;;-52
2021/07/11 10:20:29;;;;;;;3.99;3.01;;;;;;;21.26;71.59;100543.28;;;;-53
2021/07/11 10:23:30;;;;;;;5.56;2.96;;;;;;;21.26;71.23;100542.31;;;;-54
2021/07/11 10:26:29;;;;;;;6.20;2.90;;;;;;;21.25;71.45;100542.73;;;;-55
2021/07/11 10:29:29;;;;;;;6.81;3.19;;;;;;;21.25;71.46;100546.78;;;;-54
2021/07/11 10:32:29;;;;;;;3.51;2.80;;;;;;;21.25;71.46;100544.68;;;;-54
2021/07/11 10:35:29;;;;;;;4.37;3.01;;;;;;;21.25;71.27;100545.75;;;;-54
2021/07/11 10:38:29;;;;;;;5.01;2.92;;;;;;;21.25;71.25;100544.01;;;;-54
2021/07/11 10:41:30;;;;;;;4.79;2.81;;;;;;;21.25;71.17;100546.62;;;;-54
2021/07/11 10:44:29;;;;;;;8.59;3.01;;;;;;;21.24;71.13;100541.24;;;;-54
2021/07/11 10:47:29;;;;;;;5.69;2.99;;;;;;;21.25;71.16;100548.25;;;;-54
2021/07/11 10:50:29;;;;;;;4.41;2.79;;;;;;;21.25;71.08;100549.39;;;;-54
2021/07/11 10:53:29;;;;;;;5.87;2.85;;;;;;;21.25;71.09;100556.31;;;;-66
2021/07/11 10:56:29;;;;;;;3.60;2.75;;;;;;;21.24;71.13;100545.73;;;;-62
2021/07/11 10:59:29;;;;;;;5.02;2.83;;;;;;;21.25;71.03;100538.38;;;;-55
2021/07/11 11:02:29;;;;;;;4.52;2.71;;;;;;;21.25;70.94;100539.20;;;;-54
2021/07/11 11:05:29;;;;;;;4.33;2.79;;;;;;;21.24;70.96;100541.41;;;;-54
2021/07/11 11:08:29;;;;;;;5.29;2.77;;;;;;;21.24;70.90;100543.03;;;;-54
2021/07/11 11:11:31;;;;;;;4.57;2.69;;;;;;;21.24;70.80;100542.48;;;;-53
2021/07/11 11:14:32;;;;;;;5.21;2.71;;;;;;;21.24;70.88;100541.17;;;;-53
2021/07/11 11:17:29;;;;;;;4.67;2.71;;;;;;;21.24;70.88;100532.85;;;;-63
2021/07/11 11:20:29;;;;;;;2.98;2.72;;;;;;;21.23;70.89;100532.13;;;;-55
2021/07/11 11:23:29;;;;;;;5.92;2.74;;;;;;;21.24;70.92;100530.41;;;;-55
2021/07/11 11:26:29;;;;;;;5.37;2.78;;;;;;;21.24;70.74;100527.64;;;;-66
2021/07/11 11:29:29;;;;;;;3.21;2.58;;;;;;;21.23;70.78;100526.42;;;;-66
2021/07/11 11:32:29;;;;;;;3.87;2.63;;;;;;;21.24;70.79;100529.34;;;;-68
2021/07/11 11:35:29;;;;;;;2.80;2.57;;;;;;;21.24;70.80;100527.06;;;;-66
2021/07/11 11:38:29;;;;;;;3.52;2.40;;;;;;;21.24;70.77;100525.19;;;;-64
2021/07/11 11:41:30;;;;;;;3.55;2.46;;;;;;;21.24;70.76;100527.80;;;;-53
2021/07/11 11:44:29;;;;;;;3.43;2.33;;;;;;;21.25;70.73;100527.79;;;;-65
2021/07/11 11:47:29;;;;;;;3.51;2.61;;;;;;;21.24;70.65;100523.97;;;;-66
2021/07/11 11:50:29;;;;;;;3.21;2.55;;;;;;;21.24;70.66;100520.95;;;;-63
2021/07/11 11:53:29;;;;;;;3.89;2.53;;;;;;;21.25;70.59;100517.76;;;;-54
2021/07/11 11:56:29;;;;;;;2.78;2.48;;;;;;;21.24;70.68;100518.58;;;;-65
2021/07/11 11:59:30;;;;;;;2.54;2.34;;;;;;;21.25;70.72;100519.15;;;;-54
2021/07/11 12:02:31;;;;;;;4.36;2.49;;;;;;;21.25;70.68;100513.70;;;;-54
2021/07/11 12:05:29;;;;;;;3.55;2.71;;;;;;;21.24;70.58;100511.25;;;;-54
2021/07/11 12:08:29;;;;;;;2.60;2.40;;;;;;;21.25;70.56;100514.83;;;;-54
2021/07/11 12:11:29;;;;;;;2.96;2.30;;;;;;;21.25;70.58;100511.67;;;;-54
2021/07/11 12:14:29;;;;;;;3.23;2.37;;;;;;;21.24;70.52;100510.11;;;;-54
2021/07/11 12:17:29;;;;;;;2.59;2.37;;;;;;;21.24;70.62;100508.80;;;;-64
2021/07/11 12:20:29;;;;;;;2.55;2.31;;;;;;;21.24;70.55;100501.48;;;;-64
2021/07/11 12:23:30;;;;;;;2.59;2.20;;;;;;;21.24;70.49;100503.26;;;;-54
2021/07/11 12:26:30;;;;;;;10.17;2.40;;;;;;;21.24;70.57;100503.09;;;;-51
2021/07/11 12:29:29;;;;;;;2.46;2.23;;;;;;;21.24;70.64;100507.09;;;;-54
2021/07/11 12:32:29;;;;;;;2.75;2.50;;;;;;;21.24;70.64;100505.47;;;;-54
2021/07/11 12:35:29;;;;;;;2.51;2.31;;;;;;;21.25;70.65;100504.31;;;;-55
2021/07/11 12:38:29;;;;;;;3.63;2.33;;;;;;;21.24;70.52;100501.30;;;;-54
2021/07/11 12:41:29;;;;;;;3.53;2.25;;;;;;;21.25;70.60;100496.48;;;;-55
2021/07/11 12:44:29;;;;;;;2.59;2.39;;;;;;;21.25;70.51;100493.80;;;;-55
2021/07/11 12:47:29;;;;;;;2.90;2.37;;;;;;;21.24;70.55;100491.69;;;;-54
2021/07/11 12:50:29;;;;;;;2.46;2.26;;;;;;;21.25;70.59;100491.36;;;;-54
2021/07/11 12:53:29;;;;;;;2.77;2.49;;;;;;;21.25;70.51;100487.69;;;;-55
2021/07/11 12:56:29;;;;;;;2.56;2.30;;;;;;;21.24;70.55;100491.69;;;;-54
2021/07/11 12:59:31;;;;;;;6.44;2.31;;;;;;;21.26;70.63;100489.58;;;;-52
2021/07/11 13:02:30;;;;;;;3.12;2.36;;;;;;;21.26;70.57;100488.19;;;;-51
2021/07/11 13:05:29;;;;;;;3.86;2.29;;;;;;;21.27;70.66;100488.91;;;;-52
2021/07/11 13:08:29;;;;;;;2.63;2.33;;;;;;;21.29;70.68;100481.75;;;;-55
2021/07/11 13:11:29;;;;;;;2.49;2.19;;;;;;;21.30;70.86;100477.98;;;;-62
2021/07/11 13:14:29;;;;;;;2.60;2.21;;;;;;;21.32;70.86;100479.87;;;;-60
2021/07/11 13:17:29;;;;;;;2.50;2.29;;;;;;;21.33;70.86;100480.34;;;;-60
2021/07/11 13:20:29;;;;;;;2.79;2.28;;;;;;;21.34;70.83;100475.14;;;;-59
2021/07/11 13:23:29;;;;;;;2.41;2.21;;;;;;;21.33;70.92;100469.99;;;;-60
2021/07/11 13:26:29;;;;;;;2.43;2.23;;;;;;;21.34;70.93;100469.69;;;;-60
2021/07/11 13:29:29;;;;;;;2.31;2.11;;;;;;;21.33;70.90;100472.88;;;;-59
2021/07/11 13:32:29;;;;;;;2.59;2.24;;;;;;;21.33;70.76;100471.78;;;;-59
2021/07/11 13:35:29;;;;;;;3.31;2.11;;;;;;;21.33;70.70;100465.19;;;;-59
2021/07/11 13:38:29;;;;;;;3.01;2.20;;;;;;;21.33;70.75;100462.81;;;;-60
2021/07/11 13:41:30;;;;;;;3.27;2.12;;;;;;;21.34;70.74;100463.82;;;;-60
2021/07/11 13:44:29;;;;;;;2.51;2.31;;;;;;;21.33;70.65;100459.72;;;;-60
2021/07/11 13:47:33;;;;;;;2.44;2.13;;;;;;;21.32;70.71;100460.14;;;;-59
2021/07/11 13:50:29;;;;;;;3.13;2.24;;;;;;;21.32;70.67;100459.98;;;;-59
2021/07/11 13:53:29;;;;;;;2.96;2.35;;;;;;;21.32;70.56;100459.16;;;;-59
2021/07/11 13:56:29;;;;;;;2.31;2.11;;;;;;;21.33;70.58;100456.14;;;;-59
2021/07/11 13:59:29;;;;;;;2.71;2.14;;;;;;;21.32;70.57;100462.02;;;;-59
2021/07/11 14:02:29;;;;;;;3.30;2.10;;;;;;;21.32;70.60;100456.47;;;;-59
2021/07/11 14:05:29;;;;;;;3.31;2.10;;;;;;;21.32;70.61;100456.40;;;;-59
2021/07/11 14:08:30;;;;;;;2.24;2.04;;;;;;;21.32;70.57;100454.92;;;;-59
2021/07/11 14:11:29;;;;;;;2.39;2.19;;;;;;;21.33;70.46;100454.84;;;;-59
2021/07/11 14:14:29;;;;;;;2.53;2.33;;;;;;;21.32;70.50;100450.20;;;;-60
2021/07/11 14:17:29;;;;;;;2.24;1.96;;;;;;;21.33;70.50;100446.36;;;;-59
2021/07/11 14:20:29;;;;;;;2.67;2.05;;;;;;;21.32;70.44;100442.20;;;;-62
2021/07/11 14:23:29;;;;;;;2.37;2.08;;;;;;;21.32;70.59;100442.38;;;;-63
2021/07/11 14:26:29;;;;;;;2.66;2.12;;;;;;;21.32;70.46;100439.69;;;;-63
2021/07/11 14:29:29;;;;;;;2.37;2.15;;;;;;;21.33;70.49;100441.30;;;;-63
2021/07/11 14:32:29;;;;;;;4.31;2.01;;;;;;;21.32;70.43;100436.34;;;;-59
2021/07/11 14:35:29;;;;;;;2.36;2.16;;;;;;;21.34;70.62;100439.75;;;;-59
2021/07/11 14:38:29;;;;;;;2.19;1.99;;;;;;;21.35;70.62;100436.58;;;;-59
2021/07/11 14:41:29;;;;;;;2.30;2.10;;;;;;;21.38;70.71;100440.50;;;;-63
2021/07/11 14:44:29;;;;;;;2.32;2.12;;;;;;;21.38;70.81;100427.37;;;;-62
2021/07/11 14:47:29;;;;;;;2.86;1.96;;;;;;;21.41;70.79;100426.45;;;;-58
2021/07/11 14:50:29;;;;;;;2.89;2.00;;;;;;;21.42;70.78;100427.04;;;;-58
2021/07/11 14:53:29;;;;;;;2.27;2.07;;;;;;;21.44;70.75;100430.81;;;;-59
2021/07/11 14:56:29;;;;;;;2.52;2.16;;;;;;;21.45;70.86;100425.58;;;;-58
2021/07/11 14:59:29;;;;;;;2.33;2.11;;;;;;;21.46;70.94;100421.11;;;;-59
2021/07/11 15:02:29;;;;;;;2.96;2.13;;;;;;;21.46;70.85;100418.98;;;;-56
2021/07/11 15:05:29;;;;;;;2.94;2.11;;;;;;;21.47;70.93;100418.97;;;;-58
2021/07/11 15:08:31;;;;;;;2.71;1.93;;;;;;;21.48;70.97;100420.34;;;;-60
2021/07/11 15:11:29;;;;;;;2.29;2.09;;;;;;;21.48;71.07;100417.73;;;;-54
2021/07/11 15:14:29;;;;;;;2.94;2.05;;;;;;;21.48;71.00;100410.17;;;;-53
2021/07/11 15:17:29;;;;;;;2.95;1.99;;;;;;;21.49;71.07;100406.00;;;;-57
2021/07/11 15:20:29;;;;;;;2.16;1.96;;;;;;;21.50;70.99;100410.88;;;;-59
2021/07/11 15:23:29;;;;;;;2.64;2.09;;;;;;;21.50;70.87;100411.64;;;;-62
2021/07/11 15:26:29;;;;;;;3.32;1.90;;;;;;;21.51;71.01;100412.94;;;;-54
2021/07/11 15:29:29;;;;;;;2.01;1.83;;;;;;;21.52;70.92;100408.70;;;;-55
2021/07/11 15:32:29;;;;;;;3.26;2.06;;;;;;;21.53;71.05;100403.47;;;;-62
2021/07/11 15:35:29;;;;;;;10.41;2.01;;;;;;;21.54;71.05;100404.75;;;;-68
2021/07/11 15:38:29;;;;;;;3.53;1.98;;;;;;;21.54;71.00;100401.27;;;;-67
2021/07/11 15:41:29;;;;;;;6.14;2.10;;;;;;;21.56;71.24;100398.98;;;;-57
2021/07/11 15:44:29;;;;;;;5.71;2.15;;;;;;;21.58;71.04;100400.60;;;;-55
2021/07/11 15:47:29;;;;;;;2.25;2.00;;;;;;;21.59;71.19;100394.06;;;;-63
2021/07/11 15:50:29;;;;;;;2.37;2.07;;;;;;;21.61;71.14;100391.70;;;;-61
2021/07/11 15:53:32;;;;;;;3.39;2.11;;;;;;;21.62;71.09;100387.93;;;;-65
2021/07/11 15:56:29;;;;;;;3.22;2.07;;;;;;;21.62;70.96;100388.82;;;;-57
2021/07/11 15:59:29;;;;;;;5.04;2.07;;;;;;;21.61;70.98;100383.80;;;;-53
2021/07/11 16:02:29;;;;;;;3.51;1.90;;;;;;;21.61;71.01;100381.17;;;;-56
2021/07/11 16:05:29;;;;;;;4.88;2.14;;;;;;;21.63;71.12;100378.89;;;;-57
2021/07/11 16:08:29;;;;;;;2.72;2.01;;;;;;;21.63;71.09;100370.33;;;;-51
2021/07/11 16:11:29;;;;;;;3.33;2.03;;;;;;;21.63;71.14;100366.00;;;;-52
2021/07/11 16:14:29;;;;;;;3.10;2.06;;;;;;;21.65;71.17;100363.47;;;;-55
2021/07/11 16:17:29;;;;;;;2.55;1.97;;;;;;;21.64;71.08;100360.59;;;;-58
2021/07/11 16:20:29;;;;;;;3.70;1.89;;;;;;;21.63;71.08;100356.38;;;;-58
2021/07/11 16:23:29;;;;;;;9.65;2.31;;;;;;;21.64;71.20;100355.32;;;;-51
2021/07/11 16:26:29;;;;;;;6.22;2.13;;;;;;;21.64;71.11;100354.25;;;;-52
2021/07/11 16:29:30;;;;;;;4.69;2.26;;;;;;;21.63;71.21;100352.30;;;;-51
2021/07/11 16:32:29;;;;;;;4.91;2.41;;;;;;;21.61;71.01;100342.92;;;;-55
2021/07/11 16:35:29;;;;;;;5.67;2.04;;;;;;;21.63;71.02;100340.06;;;;-51
2021/07/11 16:38:31;;;;;;;8.49;2.48;;;;;;;21.63;71.16;100339.41;;;;-61
2021/07/11 16:41:31;;;;;;;2.74;1.99;;;;;;;21.64;71.19;100335.48;;;;-55